createdAt,value
2018-08-20T00:00:57.879Z,76.27
2018-08-20T00:02:11.874Z,76.07
2018-08-20T00:03:04.862Z,75.60
2018-08-20T00:03:57.336Z,76.07
2018-08-20T00:06:29.611Z,75.79
2018-08-20T00:07:29.624Z,75.98
2018-08-20T00:08:29.617Z,75.98
2018-08-20T00:09:31.083Z,76.27
2018-08-20T00:10:30.117Z,75.98
2018-08-20T00:11:31.072Z,76.07
2018-08-20T00:12:30.117Z,75.98
2018-08-20T00:13:30.615Z,76.17
2018-08-20T00:14:36.617Z,76.27
2018-08-20T00:15:30.617Z,76.56
2018-08-20T00:16:30.616Z,76.17
2018-08-20T00:17:33.131Z,76.56
2018-08-20T00:18:31.116Z,76.56
2018-08-20T00:19:31.115Z,76.56
2018-08-20T00:20:31.117Z,76.75
2018-08-20T00:24:34.304Z,76.46
2018-08-20T00:25:34.309Z,76.56
2018-08-20T00:26:34.311Z,76.37
2018-08-20T00:30:51.787Z,77.13
2018-08-20T00:31:37.138Z,76.81
2018-08-20T00:32:39.832Z,77.23
2018-08-20T00:34:00.230Z,77.29
2018-08-20T00:34:39.325Z,77.09
2018-08-20T00:35:38.294Z,77.09
2018-08-20T00:36:38.294Z,77.86
2018-08-20T00:38:00.292Z,77.67
2018-08-20T00:39:07.734Z,77.48
2018-08-20T00:39:40.261Z,77.86
2018-08-20T00:40:38.110Z,77.76
2018-08-20T00:41:39.734Z,77.19
2018-08-20T00:42:38.794Z,77.67
2018-08-20T00:43:39.302Z,77.58
2018-08-20T00:44:39.320Z,77.38
2018-08-20T00:45:39.294Z,77.58
2018-08-20T00:46:39.295Z,77.48
2018-08-20T00:50:44.584Z,78.25
2018-08-20T00:52:04.501Z,78.44
2018-08-20T00:53:03.503Z,78.53
2018-08-20T00:54:04.003Z,77.76
2018-08-20T00:55:06.007Z,77.48
2018-08-20T00:55:49.976Z,78.20
2018-08-20T00:57:04.007Z,77.44
2018-08-20T00:59:37.180Z,78.59
2018-08-20T01:00:16.187Z,78.69
2018-08-20T01:02:47.083Z,78.97
2018-08-20T01:04:08.816Z,79.26
2018-08-20T01:04:52.746Z,79.36
2018-08-20T01:05:49.246Z,79.83
2018-08-20T01:06:48.355Z,79.74
2018-08-20T01:07:48.322Z,80.12
2018-08-20T01:08:48.314Z,80.22
2018-08-20T01:09:49.816Z,80.51
2018-08-20T01:11:11.816Z,79.64
2018-08-20T01:11:57.746Z,79.64
2018-08-20T01:12:48.812Z,79.93
2018-08-20T01:14:15.748Z,80.22
2018-08-20T01:14:50.313Z,80.22
2018-08-20T01:15:48.555Z,80.12
2018-08-20T01:16:49.319Z,80.70
2018-08-20T01:17:49.318Z,79.74
2018-08-20T01:18:51.815Z,80.03
2018-08-20T01:19:49.815Z,80.60
2018-08-20T01:20:49.814Z,80.51
2018-08-20T01:21:49.815Z,80.51
2018-08-20T01:22:50.319Z,80.70
2018-08-20T01:23:50.314Z,80.32
2018-08-20T01:24:50.314Z,79.93
2018-08-20T01:25:50.314Z,80.22
2018-08-20T01:27:04.812Z,80.32
2018-08-20T01:27:50.820Z,80.51
2018-08-20T01:29:11.836Z,79.74
2018-08-20T01:29:50.291Z,79.64
2018-08-20T01:30:50.392Z,80.32
2018-08-20T01:33:22.659Z,80.41
2018-08-20T01:34:24.141Z,80.12
2018-08-20T01:35:22.693Z,80.32
2018-08-20T01:36:22.666Z,80.51
2018-08-20T01:37:23.166Z,80.41
2018-08-20T01:38:23.169Z,80.12
2018-08-20T01:39:23.190Z,80.70
2018-08-20T01:40:23.167Z,80.89
2018-08-20T01:41:43.750Z,81.08
2018-08-20T01:42:23.666Z,80.03
2018-08-20T01:43:23.666Z,80.03
2018-08-20T01:48:57.317Z,79.83
2018-08-20T01:50:20.027Z,79.64
2018-08-20T01:50:57.508Z,80.51
2018-08-20T01:52:20.530Z,80.12
2018-08-20T01:52:57.766Z,81.08
2018-08-20T01:54:05.507Z,80.89
2018-08-20T01:54:58.530Z,80.70
2018-08-20T01:57:30.278Z,81.27
2018-08-20T01:58:30.284Z,80.85
2018-08-20T01:59:30.283Z,81.37
2018-08-20T02:02:22.810Z,80.79
2018-08-20T02:04:34.041Z,80.89
2018-08-20T02:07:05.569Z,80.85
2018-08-20T02:08:04.925Z,80.60
2018-08-20T02:09:07.582Z,80.79
2018-08-20T02:10:20.076Z,80.56
2018-08-20T02:11:06.079Z,80.12
2018-08-20T02:12:06.085Z,81.13
2018-08-20T02:13:06.075Z,81.33
2018-08-20T02:14:06.575Z,80.85
2018-08-20T02:15:27.575Z,81.04
2018-08-20T02:16:06.581Z,81.71
2018-08-20T02:17:06.575Z,82.29
2018-08-20T02:18:13.077Z,82.09
2018-08-20T02:19:10.007Z,82.09
2018-08-20T02:20:07.074Z,82.29
2018-08-20T02:21:08.068Z,82.38
2018-08-20T02:22:28.580Z,82.38
2018-08-20T02:23:29.573Z,82.09
2018-08-20T02:24:07.585Z,82.29
2018-08-20T02:25:07.575Z,82.04
2018-08-20T02:26:07.175Z,81.71
2018-08-20T02:27:10.081Z,82.38
2018-08-20T02:28:28.423Z,82.09
2018-08-20T02:29:08.079Z,82.19
2018-08-20T02:31:53.905Z,82.19
2018-08-20T02:32:41.783Z,82.29
2018-08-20T02:34:00.339Z,82.29
2018-08-20T02:35:01.353Z,82.00
2018-08-20T02:37:12.210Z,82.00
2018-08-20T02:38:12.217Z,82.96
2018-08-20T02:39:12.224Z,82.86
2018-08-20T02:42:04.227Z,82.86
2018-08-20T02:42:44.982Z,82.86
2018-08-20T02:44:04.437Z,82.96
2018-08-20T02:46:15.721Z,82.96
2018-08-20T02:47:36.728Z,82.67
2018-08-20T02:48:15.732Z,82.86
2018-08-20T02:51:08.483Z,83.34
2018-08-20T02:52:14.492Z,82.96
2018-08-20T02:53:08.493Z,83.53
2018-08-20T02:53:47.992Z,83.44
2018-08-20T02:54:47.992Z,83.25
2018-08-20T02:55:47.991Z,83.34
2018-08-20T02:56:47.992Z,83.05
2018-08-20T02:57:47.591Z,83.63
2018-08-20T03:02:12.289Z,83.34
2018-08-20T03:02:52.294Z,83.72
2018-08-20T03:03:57.301Z,83.53
2018-08-20T03:04:53.263Z,83.92
2018-08-20T03:05:53.795Z,83.92
2018-08-20T03:08:45.982Z,84.01
2018-08-20T03:09:45.315Z,83.82
2018-08-20T03:10:25.003Z,83.82
2018-08-20T03:11:24.988Z,83.63
2018-08-20T03:12:24.619Z,83.92
2018-08-20T03:13:45.701Z,83.72
2018-08-20T03:14:25.488Z,83.53
2018-08-20T03:17:11.111Z,83.34
2018-08-20T03:18:18.124Z,83.63
2018-08-20T03:18:57.118Z,83.44
2018-08-20T03:21:28.867Z,84.11
2018-08-20T03:22:28.875Z,84.39
2018-08-20T03:23:49.872Z,84.30
2018-08-20T03:26:02.060Z,84.39
2018-08-20T03:27:00.629Z,84.11
2018-08-20T03:28:02.061Z,84.20
2018-08-20T03:29:23.125Z,84.30
2018-08-20T03:31:32.520Z,84.49
2018-08-20T03:32:32.524Z,84.58
2018-08-20T03:33:32.950Z,84.30
2018-08-20T03:34:33.017Z,83.92
2018-08-20T03:35:33.017Z,83.82
2018-08-20T03:36:33.017Z,84.78
2018-08-20T03:37:33.017Z,84.49
2018-08-20T03:38:33.525Z,84.58
2018-08-20T03:41:04.174Z,83.63
2018-08-20T03:42:04.910Z,84.58
2018-08-20T03:43:04.914Z,84.11
2018-08-20T03:44:04.510Z,84.11
2018-08-20T03:45:05.418Z,84.20
2018-08-20T03:46:05.413Z,84.39
2018-08-20T03:47:05.413Z,84.30
2018-08-20T03:48:05.912Z,84.39
2018-08-20T03:50:37.303Z,84.68
2018-08-20T03:51:37.303Z,83.72
2018-08-20T03:52:37.300Z,83.63
2018-08-20T03:53:52.797Z,83.87
2018-08-20T03:54:37.025Z,84.16
2018-08-20T03:55:43.799Z,84.45
2018-08-20T03:56:37.800Z,84.35
2018-08-20T03:57:58.380Z,85.02
2018-08-20T03:58:52.304Z,84.74
2018-08-20T03:59:38.300Z,84.55
2018-08-20T04:00:39.300Z,84.58
2018-08-20T04:02:00.297Z,84.64
2018-08-20T04:02:38.803Z,84.06
2018-08-20T04:03:38.800Z,84.26
2018-08-20T04:04:38.154Z,84.11
2018-08-20T04:05:38.810Z,84.45
2018-08-20T04:07:00.299Z,85.41
2018-08-20T04:07:39.300Z,84.64
2018-08-20T04:08:38.653Z,85.02
2018-08-20T04:09:39.300Z,84.97
2018-08-20T04:12:11.049Z,85.31
2018-08-20T04:15:02.800Z,85.02
2018-08-20T04:17:14.985Z,84.16
2018-08-20T04:18:14.051Z,84.35
2018-08-20T04:19:14.057Z,84.64
2018-08-20T04:20:14.552Z,84.74
2018-08-20T04:21:14.552Z,85.60
2018-08-20T04:22:34.903Z,85.69
2018-08-20T04:23:14.567Z,86.17
2018-08-20T04:24:36.052Z,86.08
2018-08-20T04:25:14.279Z,85.88
2018-08-20T04:26:21.052Z,85.88
2018-08-20T04:27:36.052Z,86.17
2018-08-20T04:28:36.554Z,86.08
2018-08-20T04:29:15.558Z,86.27
2018-08-20T04:32:01.045Z,85.83
2018-08-20T04:33:10.061Z,85.74
2018-08-20T04:35:18.679Z,85.31
2018-08-20T04:36:18.693Z,85.50
2018-08-20T04:37:18.679Z,86.27
2018-08-20T04:39:49.729Z,85.50
2018-08-20T04:41:04.452Z,85.93
2018-08-20T04:42:04.473Z,85.69
2018-08-20T04:43:11.953Z,85.79
2018-08-20T04:45:36.350Z,85.74
2018-08-20T04:46:22.346Z,85.83
2018-08-20T04:47:23.343Z,85.69
2018-08-20T04:48:22.843Z,85.60
2018-08-20T04:49:22.849Z,85.93
2018-08-20T04:50:23.036Z,85.69
2018-08-20T04:51:22.988Z,85.60
2018-08-20T04:52:23.347Z,85.83
2018-08-20T04:53:23.349Z,86.08
2018-08-20T04:54:25.278Z,85.88
2018-08-20T04:55:23.371Z,86.50
2018-08-20T04:56:23.347Z,86.41
2018-08-20T04:57:23.853Z,86.65
2018-08-20T04:58:44.848Z,86.21
2018-08-20T04:59:45.844Z,86.21
2018-08-20T05:01:55.526Z,86.74
2018-08-20T05:02:55.512Z,86.69
2018-08-20T05:03:55.561Z,86.98
2018-08-20T05:04:57.980Z,86.46
2018-08-20T05:05:56.024Z,86.65
2018-08-20T05:08:27.409Z,86.69
2018-08-20T05:09:26.748Z,86.65
2018-08-20T05:10:33.405Z,86.69
2018-08-20T05:11:30.344Z,86.69
2018-08-20T05:12:28.872Z,86.60
2018-08-20T05:13:50.343Z,86.60
2018-08-20T05:14:29.341Z,86.69
2018-08-20T05:15:29.384Z,86.69
2018-08-20T05:16:31.341Z,86.79
2018-08-20T05:17:28.405Z,86.79
2018-08-20T05:18:31.342Z,86.79
2018-08-20T05:19:42.413Z,86.79
2018-08-20T05:20:28.909Z,86.12
2018-08-20T05:21:28.909Z,86.50
2018-08-20T05:22:49.910Z,86.31
2018-08-20T05:23:28.914Z,86.31
2018-08-20T05:24:29.410Z,86.21
2018-08-20T05:25:29.410Z,86.31
2018-08-20T05:26:29.411Z,86.25
2018-08-20T05:27:29.411Z,86.12
2018-08-20T05:28:29.912Z,86.35
2018-08-20T05:29:31.468Z,86.64
2018-08-20T05:30:29.909Z,86.35
2018-08-20T05:31:52.343Z,86.35
2018-08-20T05:34:22.578Z,86.16
2018-08-20T05:36:33.139Z,86.25
2018-08-20T05:37:33.147Z,86.35
2018-08-20T05:38:33.139Z,86.49
2018-08-20T05:39:54.639Z,86.40
2018-08-20T05:42:05.026Z,85.92
2018-08-20T05:43:05.038Z,86.30
2018-08-20T05:44:04.497Z,85.82
2018-08-20T05:46:36.776Z,85.96
2018-08-20T05:47:36.782Z,85.58
2018-08-20T05:48:36.783Z,85.86
2018-08-20T05:49:43.282Z,86.05
2018-08-20T05:50:51.282Z,85.96
2018-08-20T05:53:29.050Z,85.58
2018-08-20T05:57:13.774Z,83.47
2018-08-20T05:58:11.124Z,83.22
2018-08-20T05:59:25.781Z,83.80
2018-08-20T06:00:26.280Z,83.41
2018-08-20T06:01:36.212Z,83.60
2018-08-20T06:02:33.288Z,81.20
2018-08-20T06:03:12.280Z,80.15
2018-08-20T06:04:11.888Z,79.57
2018-08-20T06:07:05.135Z,79.67
2018-08-20T06:09:36.638Z,78.90
2018-08-20T06:10:15.653Z,78.32
2018-08-20T06:11:16.160Z,79.13
2018-08-20T06:12:37.158Z,79.42
2018-08-20T06:13:30.152Z,79.61
2018-08-20T06:15:15.804Z,79.03
2018-08-20T06:17:47.282Z,78.45
2018-08-20T06:18:48.005Z,77.31
2018-08-20T06:19:48.008Z,77.11
2018-08-20T06:21:09.503Z,76.82
2018-08-20T06:23:20.829Z,77.53
2018-08-20T06:24:19.232Z,78.59
2018-08-20T06:25:19.904Z,78.02
2018-08-20T06:26:33.900Z,77.83
2018-08-20T06:27:40.479Z,77.63
2018-08-20T06:28:48.400Z,77.83
2018-08-20T06:29:22.399Z,78.30
2018-08-20T06:30:20.398Z,78.88
2018-08-20T06:32:51.432Z,79.55
2018-08-20T06:34:13.163Z,79.84
2018-08-20T06:35:13.163Z,79.46
2018-08-20T06:36:13.665Z,80.13
2018-08-20T06:39:57.482Z,80.42
2018-08-20T06:41:16.489Z,80.22
2018-08-20T06:41:55.933Z,80.22
2018-08-20T06:43:16.052Z,80.61
2018-08-20T06:44:16.989Z,80.04
2018-08-20T06:44:55.959Z,79.27
2018-08-20T06:46:17.987Z,78.69
2018-08-20T06:46:58.422Z,78.63
2018-08-20T06:48:10.489Z,79.50
2018-08-20T06:49:16.697Z,79.40
2018-08-20T06:51:29.950Z,79.11
2018-08-20T06:52:27.958Z,79.21
2018-08-20T06:53:27.957Z,79.11
2018-08-20T06:54:48.533Z,78.83
2018-08-20T06:55:42.458Z,77.67
2018-08-20T06:58:22.143Z,77.00
2018-08-20T07:00:33.157Z,77.29
2018-08-20T07:01:39.161Z,77.00
2018-08-20T07:02:33.161Z,76.23
2018-08-20T07:03:33.161Z,75.56
2018-08-20T07:06:08.858Z,76.14
2018-08-20T07:07:04.926Z,75.84
2018-08-20T07:08:06.365Z,76.26
2018-08-20T07:09:05.424Z,76.07
2018-08-20T07:11:57.781Z,74.34
2018-08-20T07:13:03.691Z,74.34
2018-08-20T07:16:53.799Z,74.48
2018-08-20T07:17:39.162Z,74.44
2018-08-20T07:18:39.820Z,74.57
2018-08-20T07:19:40.296Z,74.05
2018-08-20T07:21:00.508Z,73.90
2018-08-20T07:21:40.296Z,74.09
2018-08-20T07:23:01.321Z,73.32
2018-08-20T07:23:46.835Z,73.51
2018-08-20T07:26:11.475Z,73.80
2018-08-20T07:27:12.234Z,74.29
2018-08-20T07:28:12.197Z,74.48
2018-08-20T07:29:12.697Z,74.19
2018-08-20T07:33:15.526Z,73.26
2018-08-20T07:34:35.861Z,73.16
2018-08-20T07:35:42.594Z,72.88
2018-08-20T07:36:37.037Z,73.26
2018-08-20T07:37:39.033Z,73.36
2018-08-20T07:39:49.424Z,72.91
2018-08-20T07:40:47.429Z,72.53
2018-08-20T07:43:19.057Z,72.43
2018-08-20T07:44:19.071Z,73.20
2018-08-20T07:45:19.061Z,72.33
2018-08-20T07:48:16.274Z,72.66
2018-08-20T07:50:24.330Z,72.47
2018-08-20T07:52:53.864Z,71.02
2018-08-20T07:53:53.217Z,72.08
2018-08-20T07:54:58.345Z,71.50
2018-08-20T07:57:24.890Z,70.96
2018-08-20T07:58:24.993Z,71.25
2018-08-20T07:59:25.618Z,70.57
2018-08-20T08:00:25.211Z,70.57
2018-08-20T08:01:49.105Z,70.51
2018-08-20T08:02:26.105Z,70.51
2018-08-20T08:03:26.102Z,70.80
2018-08-20T08:04:48.049Z,70.80
2018-08-20T08:07:19.445Z,71.00
2018-08-20T08:08:19.456Z,70.45
2018-08-20T08:09:05.425Z,70.22
2018-08-20T08:10:19.952Z,70.36
2018-08-20T08:10:58.185Z,70.74
2018-08-20T08:11:58.952Z,71.03
2018-08-20T08:12:58.953Z,71.61
2018-08-20T08:15:29.991Z,70.94
2018-08-20T08:16:30.739Z,71.12
2018-08-20T08:17:30.738Z,70.74
2018-08-20T08:18:53.184Z,70.36
2018-08-20T08:19:45.297Z,70.74
2018-08-20T08:20:30.591Z,70.64
2018-08-20T08:21:52.251Z,70.64
2018-08-20T08:24:23.987Z,71.36
2018-08-20T08:25:16.994Z,71.06
2018-08-20T08:26:23.511Z,70.39
2018-08-20T08:27:23.637Z,70.10
2018-08-20T08:28:23.707Z,70.58
2018-08-20T08:29:02.812Z,71.16
2018-08-20T08:30:10.502Z,71.26
2018-08-20T08:31:05.449Z,70.20
2018-08-20T08:32:26.997Z,70.48
2018-08-20T08:33:24.990Z,70.78
2018-08-20T08:34:03.999Z,70.78
2018-08-20T08:35:25.002Z,71.68
2018-08-20T08:40:37.944Z,70.62
2018-08-20T08:43:14.155Z,69.94
2018-08-20T08:47:14.104Z,69.74
2018-08-20T08:48:14.593Z,70.14
2018-08-20T08:49:19.661Z,70.32
2018-08-20T08:50:33.879Z,69.07
2018-08-20T08:51:19.662Z,70.52
2018-08-20T08:53:34.246Z,70.23
2018-08-20T08:54:14.161Z,70.81
2018-08-20T08:55:28.166Z,71.00
2018-08-20T08:56:14.161Z,70.72
2018-08-20T08:58:51.949Z,70.90
2018-08-20T08:59:45.308Z,69.74
2018-08-20T09:00:46.056Z,69.84
2018-08-20T09:02:00.457Z,70.14
2018-08-20T09:03:06.686Z,70.90
2018-08-20T09:03:46.466Z,69.74
2018-08-20T09:04:50.396Z,70.52
2018-08-20T09:07:39.255Z,69.74
2018-08-20T09:09:49.179Z,69.65
2018-08-20T09:10:49.913Z,69.74
2018-08-20T09:12:10.915Z,69.74
2018-08-20T09:13:04.415Z,69.17
2018-08-20T09:13:52.532Z,69.07
2018-08-20T09:14:51.888Z,68.88
2018-08-20T09:15:50.415Z,69.01
2018-08-20T09:16:50.915Z,69.17
2018-08-20T09:17:50.917Z,70.07
2018-08-20T09:18:57.424Z,70.26
2018-08-20T09:19:50.430Z,70.07
2018-08-20T09:20:51.416Z,69.88
2018-08-20T09:21:53.415Z,69.10
2018-08-20T09:22:50.769Z,68.52
2018-08-20T09:23:51.420Z,69.10
2018-08-20T09:24:57.916Z,68.62
2018-08-20T09:25:52.010Z,68.52
2018-08-20T09:26:51.274Z,68.75
2018-08-20T09:27:53.384Z,69.04
2018-08-20T09:29:13.354Z,69.04
2018-08-20T09:29:51.637Z,68.66
2018-08-20T09:30:51.748Z,68.17
2018-08-20T09:32:13.448Z,67.49
2018-08-20T09:32:58.916Z,68.40
2018-08-20T09:33:52.144Z,68.40
2018-08-20T09:36:24.398Z,66.78
2018-08-20T09:37:24.405Z,66.40
2018-08-20T09:39:56.038Z,66.78
2018-08-20T09:42:27.543Z,65.14
2018-08-20T09:43:27.546Z,65.72
2018-08-20T09:44:28.983Z,65.43
2018-08-20T09:45:28.050Z,65.24
2018-08-20T09:46:42.060Z,65.05
2018-08-20T09:47:28.051Z,65.08
2018-08-20T09:48:27.543Z,65.27
2018-08-20T09:49:49.579Z,65.56
2018-08-20T09:50:49.553Z,64.11
2018-08-20T09:51:28.551Z,64.20
2018-08-20T09:52:28.551Z,65.08
2018-08-20T09:53:52.059Z,65.30
2018-08-20T09:56:00.431Z,63.27
2018-08-20T09:58:37.940Z,64.01
2018-08-20T09:59:46.945Z,62.56
2018-08-20T10:01:33.888Z,62.20
2018-08-20T10:04:03.093Z,62.82
2018-08-20T10:05:24.789Z,61.17
2018-08-20T10:06:26.788Z,60.61
2018-08-20T10:07:19.328Z,60.42
2018-08-20T10:08:04.725Z,59.64
2018-08-20T10:09:04.292Z,59.26
2018-08-20T10:11:35.931Z,58.26
2018-08-20T10:12:37.966Z,58.16
2018-08-20T10:13:35.941Z,57.68
2018-08-20T10:14:36.441Z,58.45
2018-08-20T10:15:39.445Z,58.74
2018-08-20T10:16:36.440Z,58.94
2018-08-20T10:17:56.904Z,58.84
2018-08-20T10:18:40.386Z,59.74
2018-08-20T10:19:57.131Z,59.61
2018-08-20T10:20:36.943Z,59.33
2018-08-20T10:21:37.011Z,58.77
2018-08-20T10:22:36.943Z,59.55
2018-08-20T10:23:42.944Z,59.26
2018-08-20T10:24:39.877Z,58.87
2018-08-20T10:25:51.441Z,58.58
2018-08-20T10:26:57.794Z,58.19
2018-08-20T10:27:36.899Z,58.19
2018-08-20T10:28:37.941Z,58.87
2018-08-20T10:29:37.943Z,58.67
2018-08-20T10:30:37.940Z,59.16
2018-08-20T10:32:00.980Z,59.61
2018-08-20T10:34:11.154Z,59.33
2018-08-20T10:35:30.718Z,59.61
2018-08-20T10:36:30.754Z,59.91
2018-08-20T10:37:10.218Z,58.74
2018-08-20T10:38:10.220Z,59.03
2018-08-20T10:39:10.223Z,59.61
2018-08-20T10:40:11.650Z,59.33
2018-08-20T10:43:05.465Z,59.81
2018-08-20T10:43:42.031Z,59.61
2018-08-20T10:46:15.786Z,58.55
2018-08-20T10:47:13.793Z,59.13
2018-08-20T10:48:13.792Z,60.49
2018-08-20T10:49:41.293Z,59.61
2018-08-20T10:52:06.684Z,60.49
2018-08-20T10:52:45.692Z,60.39
2018-08-20T10:53:45.703Z,60.97
2018-08-20T10:54:45.312Z,60.88
2018-08-20T10:58:48.310Z,59.71
2018-08-20T10:59:49.011Z,60.03
2018-08-20T11:00:55.028Z,60.39
2018-08-20T11:01:51.511Z,60.39
2018-08-20T11:02:49.510Z,60.39
2018-08-20T11:04:10.526Z,59.81
2018-08-20T11:06:20.504Z,59.55
2018-08-20T11:08:52.084Z,57.51
2018-08-20T11:13:17.106Z,56.86
2018-08-20T11:15:47.888Z,56.86
2018-08-20T11:16:27.633Z,56.60
2018-08-20T11:17:27.633Z,55.82
2018-08-20T11:20:20.155Z,54.75
2018-08-20T11:20:59.914Z,53.81
2018-08-20T11:21:59.911Z,54.88
2018-08-20T11:24:31.681Z,53.71
2018-08-20T11:25:31.689Z,54.78
2018-08-20T11:26:31.688Z,54.17
2018-08-20T11:27:32.287Z,54.97
2018-08-20T11:28:32.193Z,55.53
2018-08-20T11:30:32.198Z,54.66
2018-08-20T11:31:32.689Z,55.53
2018-08-20T11:32:46.689Z,54.78
2018-08-20T11:33:32.046Z,54.42
2018-08-20T11:34:32.711Z,54.61
2018-08-20T11:35:33.189Z,53.06
2018-08-20T11:36:33.193Z,53.74
2018-08-20T11:37:33.189Z,52.96
2018-08-20T11:38:53.690Z,53.91
2018-08-20T11:39:39.703Z,54.22
2018-08-20T11:40:54.692Z,54.52
2018-08-20T11:41:33.708Z,53.81
2018-08-20T11:42:33.690Z,53.71
2018-08-20T11:43:48.220Z,53.71
2018-08-20T11:44:55.204Z,53.91
2018-08-20T11:45:34.226Z,54.75
2018-08-20T11:46:34.206Z,54.56
2018-08-20T11:47:33.821Z,54.94
2018-08-20T11:48:34.014Z,55.04
2018-08-20T11:49:34.695Z,56.40
2018-08-20T11:50:35.688Z,55.92
2018-08-20T11:51:35.192Z,56.01
2018-08-20T11:54:08.590Z,56.01
2018-08-20T11:55:07.542Z,57.37
2018-08-20T11:56:06.036Z,56.57
2018-08-20T11:57:06.143Z,57.37
2018-08-20T12:00:05.435Z,58.31
2018-08-20T12:00:37.943Z,58.31
2018-08-20T12:01:45.936Z,57.44
2018-08-20T12:03:00.843Z,57.64
2018-08-20T12:04:01.344Z,56.86
2018-08-20T12:04:59.910Z,56.57
2018-08-20T12:05:38.282Z,56.37
2018-08-20T12:06:38.909Z,56.86
2018-08-20T12:07:39.468Z,56.67
2018-08-20T12:09:00.417Z,56.47
2018-08-20T12:10:00.418Z,56.57
2018-08-20T12:10:39.411Z,56.67
2018-08-20T12:13:11.239Z,58.80
2018-08-20T12:14:11.246Z,59.87
2018-08-20T12:15:12.203Z,59.64
2018-08-20T12:16:10.816Z,57.70
2018-08-20T12:17:11.005Z,57.80
2018-08-20T12:18:11.045Z,58.58
2018-08-20T12:19:14.679Z,60.13
2018-08-20T12:20:11.746Z,59.94
2018-08-20T12:21:14.246Z,60.61
2018-08-20T12:22:33.250Z,60.42
2018-08-20T12:23:12.354Z,60.52
2018-08-20T12:24:33.247Z,61.07
2018-08-20T12:25:32.903Z,60.97
2018-08-20T12:26:11.930Z,59.71
2018-08-20T12:27:12.035Z,59.91
2018-08-20T12:28:12.764Z,60.68
2018-08-20T12:29:12.749Z,60.68
2018-08-20T12:30:13.247Z,59.33
2018-08-20T12:32:52.581Z,59.03
2018-08-20T12:33:58.654Z,58.74
2018-08-20T12:34:44.652Z,57.78
2018-08-20T12:37:15.689Z,59.94
2018-08-20T12:38:15.794Z,60.52
2018-08-20T12:39:16.412Z,57.90
2018-08-20T12:40:37.913Z,57.51
2018-08-20T12:41:18.348Z,57.51
2018-08-20T12:43:48.438Z,56.74
2018-08-20T12:44:48.440Z,57.03
2018-08-20T12:45:48.439Z,57.15
2018-08-20T12:47:11.371Z,56.09
2018-08-20T12:49:26.285Z,55.60
2018-08-20T12:50:19.655Z,55.60
2018-08-20T12:51:20.294Z,55.79
2018-08-20T12:52:48.791Z,55.69
2018-08-20T12:53:20.022Z,56.09
2018-08-20T12:54:20.794Z,55.69
2018-08-20T12:55:35.296Z,55.79
2018-08-20T12:56:44.293Z,55.79
2018-08-20T12:58:53.627Z,55.89
2018-08-20T12:59:53.193Z,55.69
2018-08-20T13:01:15.195Z,56.37
2018-08-20T13:01:55.670Z,55.41
2018-08-20T13:02:55.669Z,55.50
2018-08-20T13:03:52.821Z,55.41
2018-08-20T13:05:07.695Z,55.79
2018-08-20T13:05:53.698Z,55.79
2018-08-20T13:06:53.697Z,56.86
2018-08-20T13:07:55.628Z,56.09
2018-08-20T13:08:53.424Z,55.79
2018-08-20T13:10:00.202Z,56.57
2018-08-20T13:12:25.873Z,55.92
2018-08-20T13:13:46.222Z,55.82
2018-08-20T13:14:25.906Z,55.41
2018-08-20T13:15:26.387Z,55.53
2018-08-20T13:16:25.633Z,55.63
2018-08-20T13:18:57.772Z,55.73
2018-08-20T13:19:57.773Z,54.75
2018-08-20T13:20:57.773Z,54.46
2018-08-20T13:22:21.279Z,55.33
2018-08-20T13:22:59.706Z,56.70
2018-08-20T13:23:57.622Z,56.70
2018-08-20T13:24:58.279Z,55.04
2018-08-20T13:26:00.235Z,54.17
2018-08-20T13:27:12.774Z,54.56
2018-08-20T13:28:00.206Z,54.75
2018-08-20T13:28:58.774Z,55.65
2018-08-20T13:30:22.274Z,56.04
2018-08-20T13:30:58.512Z,54.58
2018-08-20T13:32:01.283Z,54.49
2018-08-20T13:32:58.771Z,54.00
2018-08-20T13:34:05.774Z,54.39
2018-08-20T13:34:59.775Z,54.29
2018-08-20T13:35:59.777Z,55.36
2018-08-20T13:36:59.782Z,54.49
2018-08-20T13:38:00.276Z,55.55
2018-08-20T13:39:00.273Z,55.55
2018-08-20T13:40:01.273Z,54.78
2018-08-20T13:40:59.749Z,54.58
2018-08-20T13:42:00.779Z,54.66
2018-08-20T13:43:16.207Z,54.85
2018-08-20T13:44:00.845Z,55.50
2018-08-20T13:45:00.777Z,56.86
2018-08-20T13:46:00.382Z,55.99
2018-08-20T13:47:22.286Z,56.86
2018-08-20T13:48:23.273Z,56.86
2018-08-20T13:49:01.280Z,57.54
2018-08-20T13:50:00.939Z,57.54
2018-08-20T13:51:07.776Z,56.74
2018-08-20T13:52:01.773Z,56.67
2018-08-20T13:53:01.812Z,57.32
2018-08-20T13:54:01.398Z,58.00
2018-08-20T13:56:35.667Z,57.12
2018-08-20T13:57:35.674Z,56.76
2018-08-20T13:58:33.692Z,57.70
2018-08-20T13:59:40.183Z,57.44
2018-08-20T14:00:33.415Z,57.34
2018-08-20T14:01:34.174Z,57.25
2018-08-20T14:02:36.136Z,57.15
2018-08-20T14:03:34.685Z,56.76
2018-08-20T14:04:48.674Z,57.15
2018-08-20T14:05:34.674Z,56.76
2018-08-20T14:06:34.163Z,57.15
2018-08-20T14:09:07.361Z,56.57
2018-08-20T14:10:07.366Z,56.67
2018-08-20T14:11:07.368Z,56.86
2018-08-20T14:14:00.141Z,57.15
2018-08-20T14:14:53.157Z,57.44
2018-08-20T14:15:53.182Z,57.83
2018-08-20T14:17:00.641Z,57.64
2018-08-20T14:17:39.654Z,57.34
2018-08-20T14:18:43.614Z,57.44
2018-08-20T14:20:41.143Z,56.86
2018-08-20T14:21:46.147Z,56.86
2018-08-20T14:22:39.503Z,57.34
2018-08-20T14:24:00.592Z,56.47
2018-08-20T14:24:39.702Z,56.79
2018-08-20T14:27:12.018Z,56.01
2018-08-20T14:28:12.031Z,56.89
2018-08-20T14:29:11.485Z,56.89
2018-08-20T14:31:43.754Z,56.70
2018-08-20T14:32:44.760Z,56.43
2018-08-20T14:33:43.767Z,56.52
2018-08-20T14:36:15.537Z,55.82
2018-08-20T14:37:15.539Z,55.33
2018-08-20T14:38:15.539Z,55.24
2018-08-20T14:39:37.038Z,55.82
2018-08-20T14:40:22.049Z,56.01
2018-08-20T14:42:48.069Z,55.73
2018-08-20T14:43:47.577Z,55.73
2018-08-20T14:44:47.577Z,55.73
2018-08-20T14:45:54.076Z,56.11
2018-08-20T14:46:47.315Z,55.36
2018-08-20T14:47:48.077Z,55.73
2018-08-20T14:49:02.606Z,55.75
2018-08-20T14:49:47.674Z,55.65
2018-08-20T14:51:08.766Z,55.65
2018-08-20T14:51:50.012Z,55.85
2018-08-20T14:52:47.962Z,55.27
2018-08-20T14:53:48.578Z,55.65
2018-08-20T14:55:12.101Z,56.72
2018-08-20T14:55:48.334Z,56.72
2018-08-20T14:56:49.081Z,56.24
2018-08-20T14:57:48.559Z,55.65
2018-08-20T14:59:12.578Z,56.98
2018-08-20T14:59:52.537Z,56.70
2018-08-20T15:00:51.585Z,56.79
2018-08-20T15:01:51.606Z,56.60
2018-08-20T15:04:42.851Z,57.44
2018-08-20T15:08:23.980Z,56.57
2018-08-20T15:09:24.188Z,56.76
2018-08-20T15:10:30.709Z,57.44
2018-08-20T15:11:26.171Z,57.64
2018-08-20T15:12:53.143Z,57.54
2018-08-20T15:13:25.210Z,57.73
2018-08-20T15:16:10.738Z,57.51
2018-08-20T15:17:17.738Z,57.73
2018-08-20T15:19:28.408Z,57.73
2018-08-20T15:20:48.752Z,57.93
2018-08-20T15:21:28.417Z,57.61
2018-08-20T15:22:49.913Z,57.80
2018-08-20T15:23:28.915Z,57.90
2018-08-20T15:24:49.916Z,58.19
2018-08-20T15:25:28.437Z,58.39
2018-08-20T15:26:28.562Z,58.09
2018-08-20T15:27:31.418Z,58.48
2018-08-20T15:28:29.415Z,58.19
2018-08-20T15:29:32.347Z,57.61
2018-08-20T15:32:22.186Z,58.29
2018-08-20T15:33:22.179Z,58.00
2018-08-20T15:34:21.648Z,58.67
2018-08-20T15:35:22.686Z,58.19
2018-08-20T15:36:22.677Z,58.19
2018-08-20T15:37:01.682Z,57.97
2018-08-20T15:38:01.167Z,59.16
2018-08-20T15:39:22.306Z,58.87
2018-08-20T15:40:02.181Z,59.06
2018-08-20T15:41:08.181Z,58.87
2018-08-20T15:42:02.178Z,58.67
2018-08-20T15:43:22.767Z,58.74
2018-08-20T15:44:23.677Z,58.55
2018-08-20T15:45:23.069Z,58.74
2018-08-20T15:46:02.683Z,58.74
2018-08-20T15:47:09.178Z,59.26
2018-08-20T15:48:24.178Z,58.87
2018-08-20T15:49:02.535Z,58.77
2018-08-20T15:50:24.186Z,58.74
2018-08-20T15:51:23.798Z,59.33
2018-08-20T15:52:24.679Z,59.36
2018-08-20T15:53:24.679Z,58.74
2018-08-20T15:54:03.678Z,59.61
2018-08-20T15:55:03.284Z,59.52
2018-08-20T15:56:04.179Z,59.64
2018-08-20T15:57:04.180Z,59.74
2018-08-20T15:58:04.179Z,59.74
2018-08-20T15:59:04.681Z,60.03
2018-08-20T16:00:24.892Z,59.16
2018-08-20T16:01:04.690Z,58.87
2018-08-20T16:02:25.679Z,58.67
2018-08-20T16:03:05.179Z,59.06
2018-08-20T16:04:04.417Z,58.48
2018-08-20T16:05:06.178Z,59.06
2018-08-20T16:06:05.139Z,58.77
2018-08-20T16:07:11.679Z,58.84
2018-08-20T16:08:20.677Z,58.84
2018-08-20T16:09:05.033Z,58.74
2018-08-20T16:10:26.683Z,59.61